Time;durP1;ratioP1;P1;durP2;ratioP2;P2;SDS_P1;SDS_P2;PMS_P1;PMS_P2;Temp;Humidity;BMP_temperature;BMP_pressure;BME280_temperature;BME280_humidity;BME280_pressure;Samples;Min_cycle;Max_cycle;Signal;HPM_P1;HPM_P2
2022/07/09 00:00:10;;;;;;;3.77;2.60;;;;;;;15.16;92.86;97307.59;1654141;85;21050;-82
2022/07/09 00:02:38;;;;;;;2.92;2.40;;;;;;;15.14;92.88;97313.02;1627809;87;21073;-82
2022/07/09 00:05:04;;;;;;;3.37;2.95;;;;;;;15.12;92.90;97303.71;1654093;87;20976;-84
2022/07/09 00:07:30;;;;;;;6.30;2.80;;;;;;;15.10;92.78;97313.56;1651325;87;21048;-82
2022/07/09 00:09:56;;;;;;;5.05;2.80;;;;;;;15.07;92.58;97307.41;1653593;87;21087;-83
2022/07/09 00:12:22;;;;;;;4.87;3.00;;;;;;;15.07;92.87;97307.41;1642997;87;21053;-81
2022/07/09 00:14:48;;;;;;;4.40;3.05;;;;;;;15.06;92.82;97306.59;1646961;87;21536;-82
2022/07/09 00:17:14;;;;;;;6.83;3.30;;;;;;;15.04;92.71;97312.52;1646684;87;21019;-83
2022/07/09 00:19:40;;;;;;;5.60;3.52;;;;;;;15.00;92.83;97304.23;1626287;87;21010;-82
2022/07/09 00:22:06;;;;;;;4.83;2.90;;;;;;;14.98;92.78;97306.73;1626199;87;21364;-82
2022/07/09 00:24:32;;;;;;;3.83;2.92;;;;;;;14.95;92.96;97306.58;1651568;87;21369;-83
2022/07/09 00:26:57;;;;;;;5.45;3.33;;;;;;;14.92;92.80;97302.22;1652505;87;20964;-81
2022/07/09 00:29:23;;;;;;;6.10;3.27;;;;;;;14.93;92.89;97305.15;1633663;87;21036;-82
2022/07/09 00:31:49;;;;;;;4.10;3.10;;;;;;;14.92;92.81;97302.22;1652608;87;21444;-83
2022/07/09 00:34:14;;;;;;;5.17;2.70;;;;;;;14.90;92.88;97307.64;1629085;85;20984;-83
2022/07/09 00:36:40;;;;;;;6.08;3.80;;;;;;;14.87;93.19;97294.94;1649897;87;20967;-84
2022/07/09 00:39:06;;;;;;;6.10;3.25;;;;;;;14.87;93.19;97294.94;1639274;87;21019;-83
2022/07/09 00:41:32;;;;;;;6.67;3.30;;;;;;;14.93;92.91;97305.15;1628538;87;21052;-85
2022/07/09 00:43:57;;;;;;;7.70;3.90;;;;;;;14.90;93.13;97305.53;1652158;87;20975;-85
2022/07/09 00:46:23;;;;;;;5.60;3.80;;;;;;;14.88;92.86;97306.22;1636957;87;21018;-85
2022/07/09 00:48:49;;;;;;;6.35;3.45;;;;;;;14.85;93.07;97307.91;1642981;86;21409;-85
2022/07/09 00:51:16;;;;;;;8.33;3.35;;;;;;;14.84;92.76;97301.05;1637956;87;21012;-85
2022/07/09 00:53:42;;;;;;;5.58;3.22;;;;;;;14.84;92.90;97303.17;1631305;87;20980;-85
2022/07/09 00:56:09;;;;;;;9.60;3.75;;;;;;;14.85;93.01;97301.36;1643117;87;21016;-84
2022/07/09 00:58:35;;;;;;;5.08;3.00;;;;;;;14.86;93.13;97295.94;1680427;84;21030;-83
2022/07/09 01:01:00;;;;;;;5.70;3.50;;;;;;;14.87;93.01;97294.13;1684809;84;21031;-83
2022/07/09 01:03:26;;;;;;;5.50;3.25;;;;;;;14.87;93.05;97290.20;1673780;84;21397;-84
2022/07/09 01:05:52;;;;;;;8.28;3.83;;;;;;;14.86;92.83;97292.02;1696731;84;20964;-85
2022/07/09 01:08:18;;;;;;;6.12;3.70;;;;;;;14.83;92.54;97286.34;1697684;84;20947;-84
2022/07/09 01:10:44;;;;;;;8.35;3.80;;;;;;;14.79;92.43;97289.00;1690610;84;21012;-84
2022/07/09 01:13:11;;;;;;;5.97;3.45;;;;;;;14.76;92.52;97283.65;1669575;84;20979;-84
2022/07/09 01:15:37;;;;;;;6.55;4.28;;;;;;;14.75;92.64;97286.45;1692008;84;21035;-83
2022/07/09 01:18:03;;;;;;;5.60;3.67;;;;;;;14.71;92.63;97287.33;1697668;84;20948;-85
2022/07/09 01:20:30;;;;;;;4.28;3.35;;;;;;;14.67;92.61;97287.39;1666223;84;21039;-84
2022/07/09 01:22:56;;;;;;;8.58;3.20;;;;;;;14.65;92.74;97283.66;1673484;84;21027;-85
2022/07/09 01:25:33;;;;;;;9.35;3.15;;;;;;;14.64;92.80;97283.34;1669451;84;21398;-85
2022/07/09 01:27:59;;;;;;;4.60;3.17;;;;;;;14.64;92.79;97279.42;1671927;84;21414;-84
2022/07/09 01:30:26;;;;;;;6.65;3.45;;;;;;;14.64;92.59;97278.58;1669652;84;21007;-86
2022/07/09 01:32:53;;;;;;;5.95;3.33;;;;;;;14.62;92.50;97279.27;1689343;84;21031;-84
2022/07/09 01:35:19;;;;;;;5.78;3.60;;;;;;;14.60;92.50;97276.03;1697870;84;21037;-84
2022/07/09 01:37:45;;;;;;;5.97;3.42;;;;;;;14.58;92.52;97270.98;1697672;84;21306;-84
2022/07/09 01:40:12;;;;;;;11.15;3.72;;;;;;;14.59;92.57;97270.49;1696433;84;21035;-83
2022/07/09 01:42:38;;;;;;;6.58;3.95;;;;;;;14.57;92.32;97268.06;1697506;84;21406;-84
2022/07/09 01:45:05;;;;;;;5.00;3.30;;;;;;;14.56;92.35;97272.17;1688868;83;21020;-84
2022/07/09 01:47:30;;;;;;;8.23;4.08;;;;;;;14.56;92.54;97267.75;1683291;84;20991;-84
2022/07/09 01:49:56;;;;;;;5.53;3.87;;;;;;;14.54;92.59;97260.59;1678349;84;20975;-86
2022/07/09 01:52:22;;;;;;;8.98;3.95;;;;;;;14.51;92.56;97260.97;1686004;84;21298;-84
2022/07/09 01:54:48;;;;;;;10.50;3.85;;;;;;;14.51;92.73;97260.16;1668341;84;20968;-84
2022/07/09 01:57:13;;;;;;;8.23;3.90;;;;;;;14.49;92.60;97266.88;1667798;84;21012;-84
2022/07/09 01:59:39;;;;;;;8.93;3.90;;;;;;;14.46;92.55;97265.92;1672087;84;21034;-85
2022/07/09 02:02:05;;;;;;;4.53;3.70;;;;;;;14.46;92.63;97269.03;1687413;84;20963;-83
2022/07/09 02:04:31;;;;;;;7.05;2.98;;;;;;;14.44;92.50;97263.18;1697736;84;21310;-86
2022/07/09 02:06:57;;;;;;;6.58;3.10;;;;;;;14.44;92.41;97262.69;1711682;84;21053;-85
2022/07/09 02:09:23;;;;;;;5.65;3.50;;;;;;;14.44;92.52;97263.18;1715725;83;20922;-83
2022/07/09 02:11:49;;;;;;;6.45;3.65;;;;;;;14.44;92.40;97260.56;1693884;83;21411;-85
2022/07/09 02:14:15;;;;;;;10.82;3.90;;;;;;;14.42;92.50;97255.49;1687163;84;21005;-83
2022/07/09 02:16:41;;;;;;;8.08;4.05;;;;;;;14.41;92.64;97251.26;1694524;84;21047;-84
2022/07/09 02:19:07;;;;;;;13.05;5.28;;;;;;;14.32;92.27;97249.27;1701475;84;21416;-85
2022/07/09 02:21:33;;;;;;;6.20;3.50;;;;;;;14.33;92.53;97252.69;1687247;84;21030;-83
2022/07/09 02:23:59;;;;;;;6.12;3.55;;;;;;;14.31;92.57;97249.42;1668920;84;21049;-83
2022/07/09 02:26:29;;;;;;;6.62;3.37;;;;;;;14.29;92.49;97244.88;1701332;82;21146;-85
2022/07/09 02:28:55;;;;;;;6.28;3.47;;;;;;;14.28;92.53;97244.56;1707254;84;21003;-84
2022/07/09 02:31:21;;;;;;;7.40;3.87;;;;;;;14.27;92.61;97243.76;1694765;84;21114;-84
2022/07/09 02:33:47;;;;;;;8.05;3.83;;;;;;;14.29;92.43;97240.95;1714438;84;21010;-83
2022/07/09 02:36:13;;;;;;;7.30;3.95;;;;;;;14.24;90.78;97238.91;1692870;84;21017;-84
2022/07/09 02:38:38;;;;;;;8.05;3.70;;;;;;;14.21;91.27;97243.20;1698529;84;20938;-83
2022/07/09 02:41:04;;;;;;;5.95;3.37;;;;;;;14.20;91.53;97242.08;1666521;85;20962;-83
2022/07/09 02:43:30;;;;;;;10.98;3.72;;;;;;;14.20;91.86;97239.46;1685480;85;20943;-84
2022/07/09 02:45:56;;;;;;;10.10;3.77;;;;;;;14.20;91.53;97238.16;1684722;84;20951;-84
2022/07/09 02:48:27;;;;;;;5.28;3.35;;;;;;;14.17;90.86;97240.64;1661795;85;20923;-86
2022/07/09 02:50:53;;;;;;;8.78;3.62;;;;;;;14.17;91.20;97235.91;1638390;86;21030;-86
2022/07/09 02:53:20;;;;;;;8.05;3.45;;;;;;;14.19;91.26;97242.57;1651132;85;21018;-85
2022/07/09 02:55:45;;;;;;;7.70;3.47;;;;;;;14.20;90.16;97239.46;1639896;86;20978;-85
2022/07/09 02:58:12;;;;;;;6.45;3.50;;;;;;;14.20;90.56;97246.00;1645110;86;20955;-85
2022/07/09 03:00:42;;;;;;;8.48;4.00;;;;;;;14.23;90.90;97247.74;1660901;84;21393;-85
2022/07/09 03:03:09;;;;;;;8.88;4.28;;;;;;;14.20;91.07;97236.35;1658753;85;21428;-85
2022/07/09 03:05:34;;;;;;;6.50;3.08;;;;;;;14.20;90.78;97232.93;1658906;85;21082;-83
2022/07/09 03:08:01;;;;;;;5.87;3.62;;;;;;;14.19;90.68;97236.04;1673375;85;20969;-84
2022/07/09 03:10:27;;;;;;;7.15;3.33;;;;;;;14.21;90.44;97236.66;1666264;85;20998;-86
2022/07/09 03:12:52;;;;;;;8.55;3.55;;;;;;;14.24;90.80;97237.59;1630300;86;21336;-85
2022/07/09 03:15:19;;;;;;;5.58;3.20;;;;;;;14.21;89.17;97237.97;1647706;85;21012;-84
2022/07/09 03:17:45;;;;;;;10.10;4.47;;;;;;;14.20;89.67;97233.73;1645703;85;20985;-83
2022/07/09 03:20:11;;;;;;;6.40;3.90;;;;;;;14.19;90.02;97232.12;1632665;85;20997;-83
2022/07/09 03:22:37;;;;;;;7.42;4.60;;;;;;;14.19;90.12;97236.04;1647578;87;21110;-84
2022/07/09 03:25:04;;;;;;;10.05;3.72;;;;;;;14.19;90.14;97230.81;1658787;85;21015;-83
2022/07/09 03:27:30;;;;;;;5.95;2.90;;;;;;;14.19;90.20;97232.61;1678371;85;21007;-84
2022/07/09 03:29:55;;;;;;;6.15;3.17;;;;;;;14.18;90.16;97233.11;1631742;86;21045;-85
2022/07/09 03:32:21;;;;;;;8.95;3.25;;;;;;;14.19;90.43;97236.04;1636545;85;21424;-84
2022/07/09 03:34:48;;;;;;;6.47;3.30;;;;;;;14.23;90.42;97233.86;1686465;85;20966;-84
2022/07/09 03:37:13;;;;;;;8.58;3.10;;;;;;;14.25;89.86;97233.98;1687014;85;21366;-84
2022/07/09 03:39:39;;;;;;;8.08;3.75;;;;;;;14.25;89.30;97228.76;1686432;85;21062;-83
2022/07/09 03:42:06;;;;;;;5.92;3.47;;;;;;;14.23;88.82;97227.33;1673617;85;21089;-84
2022/07/09 03:44:33;;;;;;;5.65;3.60;;;;;;;14.23;88.68;97228.14;1633255;86;20955;-83
2022/07/09 03:47:00;;;;;;;6.87;3.42;;;;;;;14.22;88.85;97228.33;1687186;85;21070;-83
2022/07/09 03:49:26;;;;;;;8.58;3.70;;;;;;;14.24;88.91;97225.02;1686633;85;21418;-84
2022/07/09 03:51:52;;;;;;;5.37;3.15;;;;;;;14.23;89.06;97231.25;1686680;85;21062;-85
2022/07/09 03:54:18;;;;;;;5.85;3.17;;;;;;;14.23;89.70;97230.75;1686505;85;21283;-85
2022/07/09 03:56:43;;;;;;;10.80;3.85;;;;;;;14.20;88.39;97234.23;1686545;85;20950;-86
2022/07/09 03:59:09;;;;;;;10.00;3.92;;;;;;;14.17;88.09;97231.99;1686517;85;20985;-86
2022/07/09 04:01:35;;;;;;;6.45;3.22;;;;;;;14.16;88.11;97232.48;1656822;85;21022;-86
2022/07/09 04:04:01;;;;;;;6.17;3.40;;;;;;;14.11;87.24;97230.91;1645131;87;21018;-85
2022/07/09 04:06:27;;;;;;;8.73;3.35;;;;;;;14.08;87.74;97229.97;1616770;87;21357;-85
2022/07/09 04:08:52;;;;;;;7.03;3.20;;;;;;;14.04;87.47;97230.83;1628016;87;20962;-85
2022/07/09 04:11:18;;;;;;;6.67;3.52;;;;;;;14.02;88.79;97223.67;1660921;84;20944;-85
2022/07/09 04:13:44;;;;;;;10.08;4.25;;;;;;;14.05;89.43;97219.88;1682926;84;20982;-83
2022/07/09 04:16:12;;;;;;;7.17;3.98;;;;;;;14.05;88.51;97218.58;1698000;84;21381;-84
2022/07/09 04:18:37;;;;;;;7.95;3.37;;;;;;;14.06;88.67;97224.12;1670384;84;21006;-86
2022/07/09 04:21:03;;;;;;;6.78;3.15;;;;;;;14.10;89.48;97223.56;1677397;84;21366;-84
2022/07/09 04:23:29;;;;;;;8.58;3.70;;;;;;;14.14;89.67;97218.77;1696417;84;21018;-84
2022/07/09 04:25:55;;;;;;;7.45;3.33;;;;;;;14.18;89.00;97220.55;1694869;84;21022;-86
2022/07/09 04:28:21;;;;;;;10.08;3.27;;;;;;;14.22;88.78;97215.25;1694516;84;21004;-86
2022/07/09 04:30:47;;;;;;;6.60;3.50;;;;;;;14.20;87.77;97214.13;1687086;84;21483;-86
2022/07/09 04:33:12;;;;;;;5.83;3.45;;;;;;;14.24;88.54;97211.45;1692313;84;21010;-85
2022/07/09 04:35:38;;;;;;;8.68;3.95;;;;;;;14.24;88.82;97213.27;1692820;84;21016;-85
2022/07/09 04:38:04;;;;;;;6.90;3.58;;;;;;;14.27;89.26;97215.00;1692797;84;21425;-86
2022/07/09 04:40:30;;;;;;;6.42;2.85;;;;;;;14.28;89.25;97217.93;1696508;84;20987;-83
2022/07/09 04:42:57;;;;;;;5.97;3.20;;;;;;;14.29;88.99;97222.16;1696612;84;21465;-84
2022/07/09 04:45:22;;;;;;;10.45;4.08;;;;;;;14.29;88.99;97222.66;1696518;84;20988;-83
2022/07/09 04:47:48;;;;;;;6.85;3.12;;;;;;;14.31;88.45;97220.67;1692606;84;20975;-84
2022/07/09 04:50:14;;;;;;;8.18;3.47;;;;;;;14.31;88.07;97224.09;1692949;84;20924;-83
2022/07/09 04:52:40;;;;;;;6.70;2.70;;;;;;;14.30;87.62;97221.66;1696781;84;21346;-83
2022/07/09 04:55:06;;;;;;;7.67;3.40;;;;;;;14.31;88.25;97221.97;1695972;84;21071;-83
2022/07/09 04:57:32;;;;;;;7.95;3.00;;;;;;;14.32;88.52;97220.52;1693165;84;21012;-84
2022/07/09 05:00:01;;;;;;;10.55;2.92;;;;;;;14.34;88.26;97219.83;1697126;84;21591;-84
2022/07/09 05:02:27;;;;;;;6.08;3.52;;;;;;;14.36;88.05;97220.45;1707526;84;21046;-83
2022/07/09 05:04:53;;;;;;;8.30;3.45;;;;;;;14.39;88.02;97220.56;1707611;84;20947;-84
2022/07/09 05:07:19;;;;;;;8.60;3.90;;;;;;;14.39;88.12;97221.38;1711321;84;20954;-86
2022/07/09 05:09:44;;;;;;;6.00;3.50;;;;;;;14.37;87.42;97221.25;1715141;84;21019;-86
2022/07/09 05:12:11;;;;;;;9.80;2.83;;;;;;;14.31;87.19;97222.78;1711287;84;21025;-86
2022/07/09 05:14:38;;;;;;;8.20;2.87;;;;;;;14.29;87.60;97218.73;1707402;84;20946;-84
2022/07/09 05:17:05;;;;;;;8.40;3.10;;;;;;;14.26;87.17;97229.07;1711241;84;20979;-85
2022/07/09 05:19:31;;;;;;;5.80;3.50;;;;;;;14.26;87.67;97232.98;1711104;84;21070;-85
2022/07/09 05:21:56;;;;;;;8.20;3.87;;;;;;;14.30;88.20;97236.04;1690741;84;21070;-84
2022/07/09 05:24:23;;;;;;;7.12;4.47;;;;;;;14.28;88.26;97232.31;1712712;84;21330;-84
2022/07/09 05:26:50;;;;;;;5.35;3.83;;;;;;;14.26;88.50;97232.98;1706195;84;21038;-84
2022/07/09 05:29:16;;;;;;;7.05;4.30;;;;;;;14.19;88.65;97228.20;1712855;84;21030;-86
2022/07/09 05:31:42;;;;;;;7.15;4.08;;;;;;;14.10;88.79;97230.09;1715005;84;21432;-85
2022/07/09 05:34:08;;;;;;;8.90;4.55;;;;;;;14.07;89.45;97233.08;1711135;84;20999;-84
2022/07/09 05:36:34;;;;;;;5.25;3.83;;;;;;;14.06;89.61;97231.45;1696007;84;21077;-83
2022/07/09 05:39:00;;;;;;;6.00;3.92;;;;;;;14.04;89.92;97235.25;1715154;84;21340;-83
2022/07/09 05:41:26;;;;;;;7.33;4.60;;;;;;;14.06;90.30;97231.45;1706419;82;20982;-84
2022/07/09 05:43:53;;;;;;;6.55;4.65;;;;;;;14.07;90.34;97228.34;1710157;84;21429;-83
2022/07/09 05:46:19;;;;;;;4.70;3.77;;;;;;;14.09;90.64;97223.25;1698374;84;20943;-85
2022/07/09 05:48:45;;;;;;;5.08;4.05;;;;;;;14.16;90.99;97222.53;1706087;84;20939;-83
2022/07/09 05:51:10;;;;;;;5.17;4.20;;;;;;;14.15;90.54;97228.23;1698392;84;21091;-83
2022/07/09 05:53:36;;;;;;;4.90;3.90;;;;;;;14.15;90.64;97224.31;1687719;84;21038;-83
2022/07/09 05:56:02;;;;;;;6.10;3.87;;;;;;;14.18;90.74;97229.19;1701194;84;21073;-83
2022/07/09 05:58:28;;;;;;;5.47;4.17;;;;;;;14.22;90.85;97229.63;1711664;84;20990;-84
2022/07/09 06:00:54;;;;;;;5.60;4.67;;;;;;;14.24;91.19;97223.22;1711080;82;21519;-83
2022/07/09 06:03:20;;;;;;;7.75;5.10;;;;;;;14.26;90.87;97225.15;1654548;85;21026;-85
2022/07/09 06:05:45;;;;;;;5.35;4.53;;;;;;;14.23;90.79;97221.60;1678122;85;21014;-85
2022/07/09 06:08:12;;;;;;;7.80;6.17;;;;;;;14.30;91.33;97220.36;1673383;86;20998;-82
2022/07/09 06:10:37;;;;;;;8.58;5.83;;;;;;;14.33;91.11;97214.28;1662817;86;21409;-81
2022/07/09 06:13:03;;;;;;;9.43;6.25;;;;;;;14.36;91.18;97213.91;1653533;86;21034;-82
2022/07/09 06:15:29;;;;;;;9.60;5.80;;;;;;;14.39;90.87;97214.03;1652653;86;21027;-85
2022/07/09 06:17:56;;;;;;;11.15;6.80;;;;;;;14.45;90.98;97212.50;1646127;87;21102;-83
2022/07/09 06:20:21;;;;;;;7.47;6.00;;;;;;;14.52;91.02;97213.40;1674906;85;21405;-83
2022/07/09 06:22:47;;;;;;;8.48;5.85;;;;;;;14.64;91.36;97211.41;1673509;84;20978;-81
2022/07/09 06:25:13;;;;;;;10.35;6.42;;;;;;;14.74;91.69;97213.70;1670543;85;21054;-81
2022/07/09 06:27:40;;;;;;;8.13;6.25;;;;;;;14.79;90.57;97204.78;1658707;85;21321;-82
2022/07/09 06:30:07;;;;;;;11.48;6.90;;;;;;;14.85;90.99;97206.67;1669020;86;21048;-81
2022/07/09 06:32:32;;;;;;;9.18;7.08;;;;;;;14.92;91.05;97197.55;1653642;87;21343;-82
2022/07/09 06:34:58;;;;;;;9.38;7.45;;;;;;;14.98;90.78;97200.73;1653573;85;20950;-81
2022/07/09 06:37:24;;;;;;;8.80;7.90;;;;;;;14.98;90.53;97196.81;1647649;86;20999;-82
2022/07/09 06:39:50;;;;;;;8.08;6.80;;;;;;;15.05;90.80;97195.05;1654783;87;21039;-81
2022/07/09 06:42:17;;;;;;;8.28;6.72;;;;;;;15.11;90.99;97200.02;1677411;85;21042;-81
2022/07/09 06:44:43;;;;;;;8.78;7.10;;;;;;;15.19;90.41;97193.34;1666123;85;20986;-81
2022/07/09 06:47:09;;;;;;;11.68;8.75;;;;;;;15.28;90.86;97195.61;1694802;84;21456;-82
2022/07/09 06:49:35;;;;;;;9.40;7.85;;;;;;;15.35;90.81;97194.36;1699496;84;20989;-81
2022/07/09 06:52:01;;;;;;;9.33;7.47;;;;;;;15.41;90.00;97197.51;1711873;84;21369;-81
2022/07/09 06:54:26;;;;;;;7.97;7.17;;;;;;;15.45;89.92;97196.62;1707671;84;20975;-81
2022/07/09 06:56:52;;;;;;;6.10;5.50;;;;;;;15.43;90.04;97196.00;1710607;84;20963;-81
2022/07/09 06:59:18;;;;;;;7.25;5.53;;;;;;;15.44;89.81;97190.56;1710891;84;20995;-82
2022/07/09 07:01:45;;;;;;;6.60;4.85;;;;;;;15.51;90.11;97190.13;1697361;84;21059;-81
2022/07/09 07:04:12;;;;;;;5.28;4.78;;;;;;;15.58;89.54;97190.15;1688108;84;21035;-83
2022/07/09 07:06:39;;;;;;;6.15;4.62;;;;;;;15.70;89.50;97189.95;1690089;84;21335;-83
2022/07/09 07:09:04;;;;;;;9.50;4.85;;;;;;;15.74;88.31;97184.62;1697915;84;21326;-82
2022/07/09 07:11:30;;;;;;;6.08;5.05;;;;;;;15.77;88.49;97188.16;1699094;84;21071;-84
2022/07/09 07:13:56;;;;;;;6.83;5.47;;;;;;;15.86;88.81;97188.81;1702588;84;21597;-84
2022/07/09 07:16:22;;;;;;;7.05;5.00;;;;;;;15.95;88.28;97186.34;1700473;84;21028;-84
2022/07/09 07:18:47;;;;;;;6.30;4.65;;;;;;;15.99;86.67;97186.25;1690457;83;20934;-82
2022/07/09 07:21:13;;;;;;;6.65;4.40;;;;;;;15.99;87.76;97178.39;1697620;84;20987;-82
2022/07/09 07:23:39;;;;;;;8.75;4.47;;;;;;;16.14;88.51;97179.55;1682502;84;20971;-83
2022/07/09 07:26:05;;;;;;;6.12;4.60;;;;;;;16.27;87.52;97179.59;1702530;84;21415;-83
2022/07/09 07:28:30;;;;;;;6.62;5.03;;;;;;;16.33;87.11;97172.74;1699610;83;21017;-82
2022/07/09 07:30:56;;;;;;;8.63;4.85;;;;;;;16.47;88.27;97180.44;1689988;84;21142;-83
2022/07/09 07:33:22;;;;;;;5.90;4.03;;;;;;;16.58;87.01;97182.96;1690938;84;21019;-82
2022/07/09 07:35:48;;;;;;;7.00;4.85;;;;;;;16.71;87.55;97180.89;1685651;84;21479;-83
2022/07/09 07:38:13;;;;;;;6.80;4.37;;;;;;;16.75;86.81;97176.34;1686100;84;21023;-82
2022/07/09 07:40:39;;;;;;;6.95;4.60;;;;;;;16.82;84.93;97171.13;1694608;84;21243;-82
2022/07/09 07:43:10;;;;;;;8.13;5.03;;;;;;;16.84;83.95;97171.72;1681924;84;21790;-82
2022/07/09 07:45:37;;;;;;;5.75;4.50;;;;;;;16.86;84.44;97172.83;1662077;84;21049;-82
2022/07/09 07:48:03;;;;;;;6.08;3.95;;;;;;;16.83;84.76;97171.42;1684140;83;21370;-82
2022/07/09 07:50:29;;;;;;;6.87;4.78;;;;;;;16.79;85.02;97175.47;1688499;84;20975;-82
2022/07/09 07:52:56;;;;;;;7.67;3.67;;;;;;;16.72;84.77;97179.38;1678809;84;21042;-83
2022/07/09 07:55:22;;;;;;;4.05;3.30;;;;;;;16.76;85.50;97174.56;1700999;84;21360;-84
2022/07/09 07:57:48;;;;;;;6.72;4.20;;;;;;;16.77;85.12;97173.55;1696064;84;20968;-82
2022/07/09 08:00:14;;;;;;;6.15;3.83;;;;;;;16.79;84.96;97176.78;1684931;84;21094;-82
2022/07/09 08:02:40;;;;;;;8.10;3.83;;;;;;;16.82;84.56;97174.25;1687537;83;21093;-85
2022/07/09 08:05:07;;;;;;;5.40;3.45;;;;;;;16.65;84.11;97173.80;1691173;84;21063;-82
2022/07/09 08:07:32;;;;;;;3.98;3.40;;;;;;;16.62;85.08;97171.08;1689595;84;21445;-83
2022/07/09 08:09:58;;;;;;;4.83;3.05;;;;;;;16.70;84.99;97170.09;1675891;84;20975;-84
2022/07/09 08:12:24;;;;;;;7.67;3.45;;;;;;;16.80;85.54;97168.70;1699175;84;20987;-82
2022/07/09 08:14:50;;;;;;;5.42;3.52;;;;;;;16.93;84.32;97173.66;1690451;83;20951;-83
2022/07/09 08:17:16;;;;;;;6.37;3.55;;;;;;;17.14;84.47;97175.25;1698424;84;21031;-81
2022/07/09 08:19:41;;;;;;;6.72;3.58;;;;;;;17.24;82.85;97165.92;1687810;83;21346;-83
2022/07/09 08:22:07;;;;;;;8.35;4.20;;;;;;;17.43;83.58;97162.19;1667239;84;20972;-82
2022/07/09 08:24:33;;;;;;;5.28;3.30;;;;;;;17.64;84.80;97156.66;1686549;84;20924;-83
2022/07/09 08:26:59;;;;;;;4.47;2.80;;;;;;;17.61;81.23;97156.57;1632564;87;20959;-82
2022/07/09 08:29:25;;;;;;;5.78;4.10;;;;;;;17.57;81.10;97149.28;1636510;87;21069;-82
2022/07/09 08:31:52;;;;;;;5.50;3.55;;;;;;;17.54;82.08;97153.64;1638886;86;21092;-82
2022/07/09 08:34:18;;;;;;;4.62;3.85;;;;;;;17.52;81.69;97155.67;1633162;86;21014;-82
2022/07/09 08:36:44;;;;;;;4.22;3.20;;;;;;;17.43;82.76;97155.11;1640052;87;20987;-83
2022/07/09 08:39:10;;;;;;;5.22;3.40;;;;;;;17.42;81.18;97150.87;1633285;87;20982;-83
2022/07/09 08:41:36;;;;;;;8.78;3.77;;;;;;;17.33;81.38;97157.34;1631839;85;21429;-84
2022/07/09 08:44:05;;;;;;;5.60;3.55;;;;;;;17.31;81.00;97152.30;1648516;85;21116;-85
2022/07/09 08:46:32;;;;;;;7.25;3.20;;;;;;;17.30;81.15;97156.45;1636374;87;21058;-85
2022/07/09 08:49:00;;;;;;;4.33;3.37;;;;;;;17.30;81.08;97151.19;1645816;86;20968;-83
2022/07/09 08:51:26;;;;;;;4.58;2.90;;;;;;;17.31;81.27;97154.92;1656136;87;21425;-84
2022/07/09 08:53:54;;;;;;;4.83;2.90;;;;;;;17.32;80.97;97151.28;1657076;87;21102;-84
2022/07/09 08:56:20;;;;;;;4.60;2.77;;;;;;;17.31;81.35;97152.80;1657078;85;21084;-84
2022/07/09 08:58:46;;;;;;;4.35;2.60;;;;;;;17.36;81.69;97152.98;1650885;85;21059;-84
2022/07/09 09:01:17;;;;;;;4.70;2.50;;;;;;;17.45;82.58;97154.90;1650081;85;22151;-84
2022/07/09 09:03:43;;;;;;;6.58;2.58;;;;;;;17.53;81.58;97148.90;1697334;83;21346;-84
2022/07/09 09:06:10;;;;;;;3.77;2.20;;;;;;;17.58;80.68;97139.91;1620816;88;20968;-84
2022/07/09 09:08:38;;;;;;;5.17;3.27;;;;;;;17.66;80.97;97139.66;1650895;85;21022;-82
2022/07/09 09:11:05;;;;;;;5.78;3.42;;;;;;;17.74;79.34;97138.67;1645245;85;21013;-82
2022/07/09 09:13:38;;;;;;;3.77;2.20;;;;;;;17.87;79.06;97132.02;1640782;85;21133;-83
2022/07/09 09:16:09;;;;;;;3.52;2.12;;;;;;;18.05;77.67;97132.64;1694123;83;21358;-86
2022/07/09 09:18:51;;;;;;;4.03;2.10;;;;;;;18.43;79.71;97134.46;1687646;84;20944;-83
2022/07/09 09:21:20;;;;;;;;;;;;;;;18.62;76.80;97129.56;1699688;84;20999;-83
2022/07/09 09:23:49;;;;;;;3.50;1.52;;;;;;;18.82;77.56;97125.48;1649182;84;20224;-84
2022/07/09 09:26:22;;;;;;;2.35;1.35;;;;;;;18.86;76.28;97122.19;1697303;84;21032;-83
2022/07/09 09:28:54;;;;;;;2.08;1.35;;;;;;;18.94;75.51;97121.64;1696437;84;20980;-83
2022/07/09 09:31:24;;;;;;;2.20;1.60;;;;;;;18.96;74.21;97125.66;1644367;87;21472;-83
2022/07/09 09:33:51;;;;;;;2.40;1.75;;;;;;;18.98;73.58;97125.45;1696603;84;20976;-84
2022/07/09 09:36:38;;;;;;;3.55;1.90;;;;;;;18.99;73.46;97123.10;1670904;85;21486;-83
2022/07/09 09:39:25;;;;;;;2.15;1.60;;;;;;;19.03;74.59;97122.45;1640944;85;21318;-83
2022/07/09 09:41:58;;;;;;;3.87;1.77;;;;;;;19.03;73.24;97115.86;1675691;84;21007;-86
2022/07/09 09:44:29;;;;;;;4.90;1.47;;;;;;;18.91;71.75;97112.86;1675291;84;20995;-83
2022/07/09 09:46:55;;;;;;;2.80;1.35;;;;;;;18.82;71.46;97105.73;1682483;83;21078;-82
2022/07/09 09:49:21;;;;;;;2.47;1.60;;;;;;;18.82;72.95;97114.95;1676129;83;21011;-82
2022/07/09 09:51:56;;;;;;;3.62;1.47;;;;;;;18.80;73.52;97115.16;1676626;84;21063;-82
2022/07/09 09:54:22;;;;;;;3.00;1.22;;;;;;;18.74;73.02;97111.28;1674112;84;21035;-83
2022/07/09 09:56:49;;;;;;;2.58;1.37;;;;;;;18.69;72.56;97107.95;1676698;84;21016;-82
2022/07/09 09:59:15;;;;;;;3.25;1.70;;;;;;;18.66;73.17;97107.08;1689073;84;20968;-84
2022/07/09 10:01:41;;;;;;;2.60;1.65;;;;;;;18.72;72.35;97107.55;1687296;83;21487;-81
2022/07/09 10:04:09;;;;;;;2.87;1.75;;;;;;;18.77;71.69;97106.90;1706242;84;21002;-84
2022/07/09 10:06:36;;;;;;;2.70;1.50;;;;;;;18.88;72.47;97096.98;1711276;84;21024;-82
2022/07/09 10:09:07;;;;;;;3.62;1.40;;;;;;;19.14;72.60;97098.03;1677533;84;21013;-83
2022/07/09 10:11:47;;;;;;;4.40;1.57;;;;;;;19.31;72.55;97096.95;1707059;84;22132;-82
2022/07/09 10:14:27;;;;;;;3.42;1.65;;;;;;;19.49;72.48;97086.91;1713072;82;21009;-86
2022/07/09 10:16:52;;;;;;;3.62;1.45;;;;;;;19.73;71.13;97085.25;1707973;84;20935;-85
2022/07/09 10:19:29;;;;;;;4.12;1.57;;;;;;;19.93;70.37;97081.83;1682315;84;21366;-84
2022/07/09 10:21:57;;;;;;;3.40;1.60;;;;;;;20.02;70.44;97079.70;1652549;87;21042;-82
2022/07/09 10:24:30;;;;;;;2.30;1.35;;;;;;;20.15;70.72;97074.20;1678472;85;21377;-82
2022/07/09 10:27:08;;;;;;;2.52;1.40;;;;;;;20.33;72.08;97074.65;1678703;85;21030;-81
2022/07/09 10:29:36;;;;;;;3.90;1.42;;;;;;;20.39;69.39;97067.16;1680797;84;21408;-84
2022/07/09 10:32:03;;;;;;;4.47;2.20;;;;;;;20.38;67.91;97070.32;1675791;84;21400;-83
2022/07/09 10:35:00;;;;;;;13.15;8.50;;;;;;;20.38;68.11;97070.84;1677611;84;21027;-81
2022/07/09 10:37:42;;;;;;;6.97;4.62;;;;;;;20.50;68.65;97062.46;1674870;85;21047;-82
2022/07/09 10:40:16;;;;;;;4.12;1.98;;;;;;;20.67;66.79;97063.91;1683346;85;21153;-81
2022/07/09 10:42:44;;;;;;;4.90;3.27;;;;;;;20.59;65.71;97061.08;1686538;85;20987;-82
2022/07/09 10:45:27;;;;;;;4.85;2.70;;;;;;;20.44;65.40;97060.71;1711943;82;20998;-81
2022/07/09 10:47:55;;;;;;;2.98;1.62;;;;;;;20.28;65.55;97056.06;1714023;82;21019;-82
2022/07/09 10:50:21;;;;;;;2.98;1.85;;;;;;;20.15;65.73;97063.66;1698271;84;21461;-82
2022/07/09 10:52:49;;;;;;;2.72;1.52;;;;;;;20.16;66.97;97057.86;1699298;84;21341;-82
2022/07/09 10:55:17;;;;;;;2.55;1.85;;;;;;;20.03;64.99;97039.09;1691132;84;21126;-81
2022/07/09 10:57:43;;;;;;;2.77;1.60;;;;;;;20.06;65.77;97050.52;1695584;84;21035;-83
2022/07/09 11:00:11;;;;;;;4.03;1.40;;;;;;;20.04;66.28;97048.62;1667749;84;21145;-84
2022/07/09 11:02:37;;;;;;;3.90;1.27;;;;;;;20.31;64.49;97041.89;1643054;85;21123;-81
2022/07/09 11:05:03;;;;;;;2.75;1.20;;;;;;;20.49;64.61;97040.22;1640093;85;21083;-84
2022/07/09 11:07:31;;;;;;;2.90;1.45;;;;;;;20.62;64.91;97043.45;1638097;85;21351;-84
2022/07/09 11:09:56;;;;;;;3.30;1.40;;;;;;;20.75;65.01;97034.50;1641822;85;21036;-85
2022/07/09 11:12:22;;;;;;;3.47;1.40;;;;;;;20.61;63.87;97043.16;1633187;87;20935;-84
2022/07/09 11:14:50;;;;;;;3.08;1.67;;;;;;;20.70;64.07;97031.76;1634545;87;20978;-84
2022/07/09 11:17:17;;;;;;;2.27;1.50;;;;;;;20.77;64.65;97037.72;1670517;84;21123;-85
2022/07/09 11:19:43;;;;;;;2.60;1.52;;;;;;;20.99;64.80;97036.63;1682369;84;21034;-82
2022/07/09 11:22:08;;;;;;;2.02;1.30;;;;;;;20.87;61.17;97027.91;1626495;87;21039;-82
2022/07/09 11:24:34;;;;;;;3.55;1.65;;;;;;;20.59;62.95;97028.08;1676994;84;20999;-81
2022/07/09 11:27:07;;;;;;;4.30;1.60;;;;;;;20.51;63.90;97028.42;1638906;86;21022;-82
2022/07/09 11:29:34;;;;;;;3.00;1.67;;;;;;;20.36;63.87;97025.39;1680766;84;20952;-81
2022/07/09 11:32:01;;;;;;;2.65;1.45;;;;;;;20.29;65.07;97024.69;1694061;84;21473;-82